createdAt,value
2019-05-15T00:01:48.899Z,102091.16
2019-05-15T00:03:58.310Z,102091.14
2019-05-15T00:06:04.064Z,102088.11
2019-05-15T00:08:10.768Z,102087.23
2019-05-15T00:10:18.467Z,102089.42
2019-05-15T00:12:28.456Z,102089.83
2019-05-15T00:14:36.002Z,102077.61
2019-05-15T00:16:42.616Z,102081.52
2019-05-15T00:18:49.413Z,102082.40
2019-05-15T00:20:56.117Z,102074.16
2019-05-15T00:23:02.832Z,102075.45
2019-05-15T00:25:11.260Z,102069.39
2019-05-15T00:27:20.027Z,102070.27
2019-05-15T00:29:28.913Z,102072.39
2019-05-15T00:31:35.456Z,102074.16
2019-05-15T00:33:42.179Z,102071.09
2019-05-15T00:35:50.233Z,102072.00
2019-05-15T00:37:58.561Z,102068.94
2019-05-15T00:40:08.862Z,102067.16
2019-05-15T00:42:19.029Z,102065.43
2019-05-15T00:44:25.297Z,102064.55
2019-05-15T00:46:32.495Z,102061.09
2019-05-15T00:48:40.506Z,102061.97
2019-05-15T00:50:48.551Z,102064.16
2019-05-15T00:52:56.451Z,102054.59
2019-05-15T00:55:03.621Z,102051.52
2019-05-15T00:57:10.028Z,102046.28
2019-05-15T00:59:24.024Z,102041.09
2019-05-15T01:01:28.501Z,102039.36
2019-05-15T01:03:35.227Z,102031.55
2019-05-15T01:05:41.934Z,102028.95
2019-05-15T01:07:49.936Z,102031.97
2019-05-15T01:09:59.597Z,102040.25
2019-05-15T01:12:06.184Z,102030.70
2019-05-15T01:14:13.016Z,102028.11
2019-05-15T01:16:20.760Z,102026.36
2019-05-15T01:18:29.217Z,102014.59
2019-05-15T01:20:40.468Z,102010.28
2019-05-15T01:22:48.621Z,102011.60
2019-05-15T01:24:55.546Z,102008.57
2019-05-15T01:27:02.454Z,102006.81
2019-05-15T01:29:09.326Z,101996.37
2019-05-15T01:31:19.179Z,101995.06
2019-05-15T01:33:28.319Z,101994.22
2019-05-15T01:35:39.586Z,101992.03
2019-05-15T01:37:48.333Z,101981.63
2019-05-15T01:39:58.002Z,101984.66
2019-05-15T01:42:04.304Z,101977.70
2019-05-15T01:44:11.416Z,101975.11
2019-05-15T01:46:19.055Z,101978.16
2019-05-15T01:48:28.295Z,101978.62
2019-05-15T01:50:34.999Z,101966.02
2019-05-15T01:52:42.386Z,101966.00
2019-05-15T01:54:50.601Z,101964.67
2019-05-15T01:56:59.114Z,101971.23
2019-05-15T01:59:05.879Z,101965.14
2019-05-15T02:01:14.880Z,101959.04
2019-05-15T02:03:21.862Z,101960.38
2019-05-15T02:05:28.784Z,101954.28
2019-05-15T02:07:39.420Z,101960.38
2019-05-15T02:09:49.222Z,101946.90
2019-05-15T02:11:58.101Z,101950.38
2019-05-15T02:14:04.367Z,101956.00
2019-05-15T02:16:10.646Z,101953.39
2019-05-15T02:18:19.191Z,101953.83
2019-05-15T02:20:26.264Z,101956.45
2019-05-15T02:22:34.221Z,101960.38
2019-05-15T02:24:40.738Z,101958.64
2019-05-15T02:26:50.597Z,101953.00
2019-05-15T02:28:57.353Z,101950.84
2019-05-15T02:31:04.138Z,101953.02
2019-05-15T02:33:11.974Z,101953.00
2019-05-15T02:35:21.251Z,101952.17
2019-05-15T02:37:29.787Z,101950.86
2019-05-15T02:39:38.850Z,101947.81
2019-05-15T02:41:48.854Z,101949.56
2019-05-15T02:43:54.383Z,101946.49
2019-05-15T02:46:01.164Z,101943.02
2019-05-15T02:48:09.119Z,101944.32
2019-05-15T02:50:20.202Z,101942.14
2019-05-15T02:52:24.538Z,101938.67
2019-05-15T02:54:31.162Z,101938.25
2019-05-15T02:56:39.225Z,101938.25
2019-05-15T02:58:48.821Z,101939.55
2019-05-15T03:00:54.939Z,101945.20
2019-05-15T03:03:01.670Z,101937.38
2019-05-15T03:05:09.487Z,101937.41
2019-05-15T03:07:19.302Z,101933.91
2019-05-15T03:09:29.462Z,101932.63
2019-05-15T03:11:35.578Z,101934.36
2019-05-15T03:13:42.218Z,101934.80
2019-05-15T03:15:49.267Z,101937.86
2019-05-15T03:17:56.014Z,101933.94
2019-05-15T03:20:02.832Z,101934.84
2019-05-15T03:22:10.403Z,101927.86
2019-05-15T03:24:19.452Z,101930.48
2019-05-15T03:26:25.851Z,101934.41
2019-05-15T03:28:32.563Z,101930.91
2019-05-15T03:31:12.331Z,101933.97
2019-05-15T03:33:00.532Z,101933.97
2019-05-15T03:35:05.066Z,101923.95
2019-05-15T03:37:12.025Z,101934.42
2019-05-15T03:39:19.414Z,101930.95
2019-05-15T03:41:29.616Z,101922.68
2019-05-15T03:43:34.994Z,101925.75
2019-05-15T03:45:41.451Z,101926.19
2019-05-15T03:47:49.107Z,101921.39
2019-05-15T03:49:56.109Z,101922.70
2019-05-15T03:52:02.694Z,101931.00
2019-05-15T03:54:09.802Z,101923.60
2019-05-15T03:56:19.039Z,101915.77
2019-05-15T03:58:24.883Z,101919.23
2019-05-15T04:00:31.549Z,101916.64
2019-05-15T04:02:39.965Z,101921.87
2019-05-15T04:04:50.186Z,101917.06
2019-05-15T04:06:55.621Z,101911.41
2019-05-15T04:09:05.175Z,101912.73
2019-05-15T04:11:16.011Z,101914.48
2019-05-15T04:13:22.674Z,101904.91
2019-05-15T04:15:30.285Z,101911.02
2019-05-15T04:17:40.702Z,101917.09
2019-05-15T04:19:49.701Z,101917.09
2019-05-15T04:21:55.989Z,101919.27
2019-05-15T04:24:03.911Z,101919.71
2019-05-15T04:26:12.599Z,101913.61
2019-05-15T04:28:22.120Z,101907.53
2019-05-15T04:30:30.804Z,101907.06
2019-05-15T04:32:39.887Z,101902.72
2019-05-15T04:34:48.785Z,101897.93
2019-05-15T04:36:58.564Z,101900.97
2019-05-15T04:39:09.550Z,101904.89
2019-05-15T04:41:14.815Z,101907.07
2019-05-15T04:43:21.638Z,101903.61
2019-05-15T04:45:34.430Z,101911.02
2019-05-15T04:47:39.571Z,101904.89
2019-05-15T04:49:45.735Z,101894.45
2019-05-15T04:51:52.663Z,101896.19
2019-05-15T04:53:59.434Z,101895.76
2019-05-15T04:56:09.192Z,101902.28
2019-05-15T04:58:14.526Z,101888.78
2019-05-15T05:00:39.999Z,101897.48
2019-05-15T05:02:45.915Z,101894.43
2019-05-15T05:04:52.674Z,101897.05
2019-05-15T05:07:00.261Z,101893.53
2019-05-15T05:09:09.286Z,101892.23
2019-05-15T05:11:16.174Z,101889.62
2019-05-15T05:13:24.195Z,101890.91
2019-05-15T05:15:31.069Z,101892.67
2019-05-15T05:17:39.287Z,101890.04
2019-05-15T05:19:47.863Z,101890.46
2019-05-15T05:21:55.747Z,101893.95
2019-05-15T05:24:03.937Z,101892.19
2019-05-15T05:26:12.221Z,101889.56
2019-05-15T05:28:18.991Z,101887.39
2019-05-15T05:30:29.247Z,101888.25
2019-05-15T05:32:38.771Z,101883.05
2019-05-15T05:34:45.551Z,101875.59
2019-05-15T05:36:52.395Z,101889.09
2019-05-15T05:38:59.124Z,101877.34
2019-05-15T05:41:08.135Z,101876.91
2019-05-15T05:43:18.406Z,101879.07
2019-05-15T05:45:25.303Z,101884.72
2019-05-15T05:47:31.877Z,101878.19
2019-05-15T05:49:38.749Z,101880.39
2019-05-15T05:51:47.949Z,101880.83
2019-05-15T05:53:54.219Z,101882.97
2019-05-15T05:56:00.829Z,101882.91
2019-05-15T05:58:08.234Z,101884.67
2019-05-15T06:00:18.185Z,101878.98
2019-05-15T06:02:27.874Z,101883.80
2019-05-15T06:04:33.959Z,101884.69
2019-05-15T06:06:41.994Z,101884.23
2019-05-15T06:08:48.905Z,101880.72
2019-05-15T06:10:55.398Z,101875.49
2019-05-15T06:13:02.660Z,101878.14
2019-05-15T06:15:10.534Z,101883.78
2019-05-15T06:17:19.027Z,101884.67
2019-05-15T06:19:27.792Z,101885.07
2019-05-15T06:21:39.236Z,101888.56
2019-05-15T06:23:48.518Z,101878.97
2019-05-15T06:25:54.406Z,101884.65
2019-05-15T06:28:01.291Z,101886.82
2019-05-15T06:30:13.181Z,101883.77
2019-05-15T06:32:19.411Z,101882.50
2019-05-15T06:34:25.420Z,101889.90
2019-05-15T06:36:34.038Z,101880.77
2019-05-15T06:38:40.756Z,101878.09
2019-05-15T06:40:48.607Z,101885.97
2019-05-15T06:42:55.894Z,101877.66
2019-05-15T06:45:05.034Z,101872.34
2019-05-15T06:47:11.513Z,101877.57
2019-05-15T06:49:19.394Z,101867.91
2019-05-15T06:51:28.629Z,101863.50
2019-05-15T06:53:34.755Z,101865.59
2019-05-15T06:55:41.559Z,101870.30
2019-05-15T06:57:48.534Z,101870.77
2019-05-15T06:59:57.759Z,101871.15
2019-05-15T07:02:04.109Z,101867.53
2019-05-15T07:04:10.612Z,101866.89
2019-05-15T07:06:18.294Z,101860.23
2019-05-15T07:08:24.899Z,101851.80
2019-05-15T07:10:32.724Z,101856.58
2019-05-15T07:12:39.776Z,101851.00
2019-05-15T07:14:48.592Z,101847.97
2019-05-15T07:16:55.262Z,101847.06
2019-05-15T07:19:02.081Z,101835.33
2019-05-15T07:21:10.393Z,101830.05
2019-05-15T07:23:18.576Z,101826.02
2019-05-15T07:25:29.345Z,101829.87
2019-05-15T07:27:38.991Z,101833.70
2019-05-15T07:29:48.801Z,101833.02
2019-05-15T07:31:58.601Z,101824.59
2019-05-15T07:34:08.161Z,101818.08
2019-05-15T07:36:14.177Z,101809.58
2019-05-15T07:38:21.111Z,101812.20
2019-05-15T07:40:30.945Z,101807.14
2019-05-15T07:42:38.684Z,101815.96
2019-05-15T07:44:48.200Z,101815.92
2019-05-15T07:46:55.138Z,101814.58
2019-05-15T07:49:03.758Z,101814.51
2019-05-15T07:51:11.424Z,101811.36
2019-05-15T07:53:20.303Z,101809.50
2019-05-15T07:55:34.169Z,101812.91
2019-05-15T07:57:43.942Z,101805.04
2019-05-15T07:59:51.728Z,101797.61
2019-05-15T08:01:59.624Z,101785.67
2019-05-15T08:04:22.684Z,101792.92
2019-05-15T08:06:18.002Z,101793.83
2019-05-15T08:08:25.150Z,101794.08
2019-05-15T08:10:31.936Z,101781.20
2019-05-15T08:12:39.159Z,101794.03
2019-05-15T08:14:48.358Z,101803.86
2019-05-15T08:16:54.842Z,101795.35
2019-05-15T08:19:02.985Z,101800.30
2019-05-15T08:21:11.189Z,101798.90
2019-05-15T08:23:19.302Z,101794.91
2019-05-15T08:26:05.672Z,101787.38
2019-05-15T08:27:38.287Z,101794.67
2019-05-15T08:29:45.826Z,101792.00
2019-05-15T08:31:52.699Z,101793.31
2019-05-15T08:34:12.810Z,101788.39
2019-05-15T08:36:08.602Z,101787.80
2019-05-15T08:38:17.970Z,101782.87
2019-05-15T08:40:24.386Z,101791.91
2019-05-15T08:42:32.293Z,101793.83
2019-05-15T08:44:39.561Z,101786.48
2019-05-15T08:46:48.234Z,101785.13
2019-05-15T08:48:54.852Z,101783.85
2019-05-15T08:51:01.756Z,101783.70
2019-05-15T08:53:10.837Z,101784.14
2019-05-15T08:55:20.017Z,101777.73
2019-05-15T08:57:28.837Z,101780.23
2019-05-15T08:59:34.697Z,101773.52
2019-05-15T09:01:41.427Z,101774.53
2019-05-15T09:03:48.926Z,101772.36
2019-05-15T09:05:58.786Z,101762.91
2019-05-15T09:08:04.555Z,101764.27
2019-05-15T09:10:12.868Z,101772.20
2019-05-15T09:12:19.960Z,101767.31
2019-05-15T09:14:28.490Z,101764.15
2019-05-15T09:16:38.732Z,101770.11
2019-05-15T09:18:48.339Z,101771.80
2019-05-15T09:20:55.942Z,101771.67
2019-05-15T09:23:02.538Z,101770.97
2019-05-15T09:25:13.248Z,101763.08
2019-05-15T09:27:19.892Z,101767.30
2019-05-15T09:29:28.513Z,101762.86
2019-05-15T09:31:35.391Z,101769.99
2019-05-15T09:33:42.329Z,101758.41
2019-05-15T09:35:49.309Z,101763.04
2019-05-15T09:37:58.181Z,101751.64
2019-05-15T09:40:08.885Z,101759.02
2019-05-15T09:42:17.955Z,101744.13
2019-05-15T09:44:28.232Z,101747.34
2019-05-15T09:46:34.585Z,101746.34
2019-05-15T09:48:41.338Z,101742.39
2019-05-15T09:50:49.916Z,101736.98
2019-05-15T09:52:58.843Z,101736.23
2019-05-15T09:55:08.618Z,101734.92
2019-05-15T09:57:18.751Z,101741.91
2019-05-15T09:59:27.988Z,101733.72
2019-05-15T10:01:34.053Z,101729.98
2019-05-15T10:03:44.382Z,101724.72
2019-05-15T10:05:49.376Z,101729.09
2019-05-15T10:07:57.608Z,101725.95
2019-05-15T10:10:08.506Z,101736.11
2019-05-15T10:12:14.382Z,101735.03
2019-05-15T10:14:21.145Z,101736.42
2019-05-15T10:16:28.656Z,101734.41
2019-05-15T10:18:35.383Z,101731.72
2019-05-15T10:20:42.492Z,101727.09
2019-05-15T10:22:49.550Z,101726.97
2019-05-15T10:24:58.576Z,101719.44
2019-05-15T10:27:08.787Z,101729.56
2019-05-15T10:29:15.260Z,101740.53
2019-05-15T10:31:22.234Z,101725.63
2019-05-15T10:33:29.559Z,101722.81
2019-05-15T10:35:39.139Z,101722.05
2019-05-15T10:37:48.513Z,101722.09
2019-05-15T10:39:54.237Z,101729.04
2019-05-15T10:42:01.270Z,101721.87
2019-05-15T10:44:09.171Z,101712.02
2019-05-15T10:46:19.053Z,101716.34
2019-05-15T10:48:29.456Z,101718.39
2019-05-15T10:50:38.892Z,101712.78
2019-05-15T10:52:45.687Z,101712.58
2019-05-15T10:54:53.068Z,101717.06
2019-05-15T10:57:00.906Z,101714.84
2019-05-15T10:59:08.617Z,101715.88
2019-05-15T11:01:15.242Z,101711.48
2019-05-15T11:03:22.105Z,101711.44
2019-05-15T11:05:41.158Z,101704.36
2019-05-15T11:07:39.613Z,101696.37
2019-05-15T11:09:48.916Z,101693.12
2019-05-15T11:11:55.084Z,101686.69
2019-05-15T11:14:01.798Z,101690.19
2019-05-15T11:16:08.661Z,101688.09
2019-05-15T11:18:15.482Z,101679.73
2019-05-15T11:20:23.500Z,101679.83
2019-05-15T11:22:30.144Z,101683.64
2019-05-15T11:24:38.520Z,101679.22
2019-05-15T11:26:45.457Z,101682.10
2019-05-15T11:28:52.224Z,101676.00
2019-05-15T11:30:59.793Z,101665.08
2019-05-15T11:33:06.314Z,101664.45
2019-05-15T11:35:13.783Z,101674.17
2019-05-15T11:37:20.478Z,101664.81
2019-05-15T11:39:28.780Z,101669.73
2019-05-15T11:41:38.780Z,101664.09
2019-05-15T11:43:46.092Z,101659.88
2019-05-15T11:45:52.988Z,101663.09
2019-05-15T11:48:01.019Z,101653.83
2019-05-15T11:50:08.682Z,101654.41
2019-05-15T11:52:18.772Z,101645.91
2019-05-15T11:54:28.275Z,101640.48
2019-05-15T11:56:35.612Z,101639.79
2019-05-15T11:58:44.168Z,101643.75
2019-05-15T12:00:50.923Z,101637.31
2019-05-15T12:03:01.424Z,101631.80
2019-05-15T12:05:09.785Z,101641.61
2019-05-15T12:07:18.238Z,101632.94
2019-05-15T12:09:28.062Z,101627.39
2019-05-15T12:11:37.376Z,101620.23
2019-05-15T12:13:42.682Z,101621.52
2019-05-15T12:15:49.398Z,101618.11
2019-05-15T12:17:56.134Z,101624.34
2019-05-15T12:20:06.435Z,101613.11
2019-05-15T12:22:11.584Z,101610.47
2019-05-15T12:24:20.022Z,101612.42
2019-05-15T12:26:29.149Z,101614.85
2019-05-15T12:28:40.236Z,101627.48
2019-05-15T12:30:50.026Z,101611.94
2019-05-15T12:33:00.309Z,101617.77
2019-05-15T12:35:06.730Z,101615.47
2019-05-15T12:37:13.866Z,101613.36
2019-05-15T12:39:22.245Z,101612.11
2019-05-15T13:00:53.049Z,101572.45
2019-05-15T13:03:00.149Z,101577.90
2019-05-15T13:07:25.748Z,101574.17
2019-05-15T13:09:33.448Z,101573.88
2019-05-15T13:11:40.125Z,101565.25
2019-05-15T13:13:48.464Z,101576.81
2019-05-15T13:15:55.048Z,101567.04
2019-05-15T13:18:02.261Z,101573.58
2019-05-15T13:20:10.213Z,101569.20
2019-05-15T13:22:19.486Z,101559.11
2019-05-15T13:24:25.149Z,101567.44
2019-05-15T13:26:33.141Z,101570.75
2019-05-15T13:28:40.615Z,101558.44
2019-05-15T13:30:49.018Z,101562.70
2019-05-15T13:33:01.071Z,101556.36
2019-05-15T13:35:09.820Z,101552.40
2019-05-15T13:37:26.742Z,101553.48
2019-05-15T13:39:28.221Z,101548.31
2019-05-15T13:41:34.162Z,101565.86
2019-05-15T13:43:41.166Z,101552.19
2019-05-15T13:45:49.442Z,101547.05
2019-05-15T13:47:56.337Z,101558.02
2019-05-15T13:50:03.291Z,101555.02
2019-05-15T13:52:09.936Z,101562.20
2019-05-15T13:54:18.726Z,101555.41
2019-05-15T13:56:25.438Z,101548.71
2019-05-15T13:58:33.430Z,101555.91
2019-05-15T14:00:40.535Z,101561.36
2019-05-15T14:02:48.064Z,101563.02
2019-05-15T14:04:54.542Z,101557.50
2019-05-15T14:07:02.422Z,101565.81
2019-05-15T14:09:09.723Z,101562.95
2019-05-15T14:11:21.864Z,101563.58
2019-05-15T14:13:28.753Z,101567.22
2019-05-15T14:15:38.022Z,101578.02
2019-05-15T14:17:44.547Z,101580.77
2019-05-15T14:19:51.729Z,101560.66
2019-05-15T14:21:58.766Z,101577.58
2019-05-15T14:24:05.541Z,101580.02
2019-05-15T14:26:22.334Z,101581.52
2019-05-15T14:28:21.753Z,101574.27
2019-05-15T14:30:29.326Z,101567.80
2019-05-15T14:32:39.185Z,101574.87
2019-05-15T14:34:50.887Z,101545.30
2019-05-15T14:36:58.693Z,101562.55
2019-05-15T14:39:08.069Z,101564.41
2019-05-15T14:41:15.277Z,101575.02
2019-05-15T14:43:22.534Z,101571.58
2019-05-15T14:45:29.238Z,101573.43
2019-05-15T14:47:38.036Z,101576.55
2019-05-15T14:49:45.776Z,101580.52
2019-05-15T14:52:04.601Z,101576.16
2019-05-15T14:54:02.936Z,101580.58
2019-05-15T14:56:09.879Z,101578.88
2019-05-15T14:58:19.984Z,101582.48
2019-05-15T15:00:30.219Z,101572.04
2019-05-15T15:02:34.901Z,101576.45
2019-05-15T15:04:43.716Z,101582.77
2019-05-15T15:06:51.064Z,101576.31
2019-05-15T15:08:59.258Z,101579.98
2019-05-15T15:11:09.303Z,101580.07
2019-05-15T15:13:17.935Z,101583.65
2019-05-15T15:15:25.172Z,101578.45
2019-05-15T15:17:33.454Z,101580.20
2019-05-15T15:19:40.354Z,101574.17
2019-05-15T15:21:48.672Z,101570.75
2019-05-15T15:23:55.351Z,101573.85
2019-05-15T15:26:05.241Z,101566.95
2019-05-15T15:28:12.151Z,101567.38
2019-05-15T15:30:20.963Z,101568.26
2019-05-15T15:32:29.133Z,101558.17
2019-05-15T15:34:38.604Z,101561.66
2019-05-15T15:36:45.130Z,101559.52
2019-05-15T15:38:52.149Z,101559.56
2019-05-15T15:41:00.817Z,101557.82
2019-05-15T15:43:08.784Z,101556.15
2019-05-15T15:45:19.312Z,101553.93
2019-05-15T15:47:28.180Z,101546.95
2019-05-15T15:49:34.865Z,101551.39
2019-05-15T15:51:41.587Z,101549.68
2019-05-15T15:53:49.861Z,101540.08
2019-05-15T15:55:56.669Z,101544.88
2019-05-15T15:58:03.889Z,101539.28
2019-05-15T16:00:12.009Z,101542.77
2019-05-15T16:02:18.997Z,101535.87
2019-05-15T16:04:28.077Z,101530.67
2019-05-15T16:06:38.738Z,101536.38
2019-05-15T16:08:53.119Z,101529.40
2019-05-15T16:10:54.488Z,101524.59
2019-05-15T16:13:01.020Z,101525.95
2019-05-15T16:15:09.740Z,101516.78
2019-05-15T16:17:18.234Z,101525.98
2019-05-15T16:19:28.190Z,101519.41
2019-05-15T16:21:33.909Z,101513.69
2019-05-15T16:23:41.960Z,101513.29
2019-05-15T16:25:49.030Z,101514.59
2019-05-15T16:27:57.808Z,101510.28
2019-05-15T16:30:08.224Z,101508.97
2019-05-15T16:32:19.174Z,101512.50
2019-05-15T16:34:24.361Z,101509.00
2019-05-15T16:36:32.103Z,101502.97
2019-05-15T16:38:39.074Z,101497.77
2019-05-15T16:40:48.723Z,101499.95
2019-05-15T16:42:55.120Z,101496.50
2019-05-15T16:45:01.860Z,101495.63
2019-05-15T16:47:09.026Z,101490.39
2019-05-15T16:49:19.123Z,101483.85
2019-05-15T16:51:25.407Z,101475.56
2019-05-15T16:53:34.103Z,101478.62
2019-05-15T16:55:41.310Z,101487.34
2019-05-15T16:57:48.612Z,101476.88
2019-05-15T16:59:58.480Z,101477.34
2019-05-15T17:02:08.938Z,101482.58
2019-05-15T17:04:18.016Z,101470.38
2019-05-15T17:06:24.272Z,101474.77
2019-05-15T17:08:32.227Z,101469.53
2019-05-15T17:10:40.755Z,101463.43
2019-05-15T17:12:49.201Z,101476.91
2019-05-15T17:14:58.194Z,101469.50
2019-05-15T17:17:07.829Z,101472.55
2019-05-15T17:19:13.828Z,101469.03
2019-05-15T17:21:21.871Z,101471.64
2019-05-15T17:23:29.125Z,101462.52
2019-05-15T17:25:38.159Z,101464.70
2019-05-15T17:27:44.556Z,101466.05
2019-05-15T17:29:51.486Z,101459.51
2019-05-15T17:31:58.470Z,101459.51
2019-05-15T17:34:05.160Z,101457.29
2019-05-15T17:36:11.659Z,101457.72
2019-05-15T17:38:18.545Z,101449.44
2019-05-15T17:40:25.762Z,101448.09
2019-05-15T17:42:32.544Z,101455.51
2019-05-15T17:44:39.328Z,101447.70
2019-05-15T17:46:48.750Z,101451.63
2019-05-15T17:48:56.791Z,101460.78
2019-05-15T17:51:05.153Z,101460.34
2019-05-15T17:53:12.002Z,101452.49
2019-05-15T17:55:18.875Z,101443.77
2019-05-15T17:57:28.605Z,101448.56
2019-05-15T17:59:37.833Z,101453.80
2019-05-15T18:01:43.883Z,101445.08
2019-05-15T18:03:51.919Z,101450.75
2019-05-15T18:05:59.365Z,101450.27
2019-05-15T18:08:08.661Z,101453.77
2019-05-15T18:10:16.077Z,101438.94
2019-05-15T18:12:22.911Z,101445.47
2019-05-15T18:14:30.241Z,101444.60
2019-05-15T18:16:38.132Z,101441.55
2019-05-15T18:19:08.066Z,101435.01
2019-05-15T18:21:35.074Z,101434.14
2019-05-15T18:23:42.216Z,101435.01
2019-05-15T18:25:49.291Z,101436.75
2019-05-15T18:27:58.832Z,101427.56
2019-05-15T18:30:09.235Z,101422.36
2019-05-15T18:32:18.763Z,101429.30
2019-05-15T18:34:25.597Z,101427.12
2019-05-15T18:36:32.999Z,101425.34
2019-05-15T18:38:39.948Z,101420.97
2019-05-15T18:40:48.705Z,101420.94
2019-05-15T18:42:55.678Z,101418.75
2019-05-15T18:45:03.577Z,101421.80
2019-05-15T18:47:11.229Z,101406.06
2019-05-15T18:49:18.542Z,101405.19
2019-05-15T18:51:28.004Z,101416.09
2019-05-15T18:53:35.447Z,101419.98
2019-05-15T18:55:44.871Z,101414.30
2019-05-15T18:57:51.981Z,101419.94
2019-05-15T18:59:59.295Z,101418.19
2019-05-15T19:02:08.015Z,101420.81
2019-05-15T19:04:15.362Z,101415.14
2019-05-15T19:06:23.628Z,101417.28
2019-05-15T19:08:30.736Z,101415.09
2019-05-15T19:10:38.710Z,101423.82
2019-05-15T19:12:48.456Z,101414.23
2019-05-15T19:14:58.422Z,101412.47
2019-05-15T19:17:08.215Z,101403.75
2019-05-15T19:19:15.835Z,101399.34
2019-05-15T19:21:22.880Z,101400.22
2019-05-15T19:23:29.830Z,101392.76
2019-05-15T19:25:36.717Z,101392.32
2019-05-15T19:27:44.000Z,101391.00
2019-05-15T19:29:51.010Z,101395.34
2019-05-15T19:31:58.029Z,101393.98
2019-05-15T19:34:05.345Z,101395.67
2019-05-15T19:36:12.513Z,101393.05
2019-05-15T19:38:20.177Z,101392.14
2019-05-15T19:40:28.472Z,101392.97
2019-05-15T19:42:38.079Z,101389.44
2019-05-15T19:44:44.211Z,101376.28
2019-05-15T19:46:51.212Z,101381.08
2019-05-15T19:48:58.823Z,101384.09
2019-05-15T19:51:05.854Z,101375.32
2019-05-15T19:53:13.555Z,101377.45
2019-05-15T19:55:21.122Z,101372.16
2019-05-15T19:57:30.535Z,101365.56
2019-05-15T19:59:38.184Z,101366.42
2019-05-15T20:01:48.583Z,101360.31
2019-05-15T20:03:55.823Z,101361.56
2019-05-15T20:06:02.977Z,101344.48
2019-05-15T20:08:10.171Z,101355.36
2019-05-15T20:10:18.704Z,101348.77
2019-05-15T20:12:27.773Z,101348.74
2019-05-15T20:14:34.105Z,101344.33
2019-05-15T20:16:42.897Z,101344.28
2019-05-15T20:18:51.358Z,101342.48
2019-05-15T20:20:58.604Z,101343.78
2019-05-15T20:23:08.337Z,101344.17
2019-05-15T20:25:14.587Z,101338.00
2019-05-15T20:27:21.229Z,101351.98
2019-05-15T20:29:29.408Z,101336.25
2019-05-15T20:31:38.373Z,101337.11
2019-05-15T20:33:48.225Z,101333.52
2019-05-15T20:35:54.970Z,101330.02
2019-05-15T20:38:03.435Z,101338.31
2019-05-15T20:40:11.937Z,101332.16
2019-05-15T20:42:18.699Z,101332.13
2019-05-15T20:44:25.847Z,101323.73
2019-05-15T20:46:34.043Z,101323.73
2019-05-15T20:48:41.114Z,101322.85
2019-05-15T20:50:48.385Z,101321.97
2019-05-15T20:52:55.265Z,101314.06
2019-05-15T20:55:02.121Z,101310.55
2019-05-15T20:57:10.280Z,101316.62
2019-05-15T20:59:18.208Z,101313.12
2019-05-15T21:01:28.575Z,101305.68
2019-05-15T21:03:34.865Z,101311.73
2019-05-15T21:05:41.702Z,101298.19
2019-05-15T21:07:49.076Z,101297.27
2019-05-15T21:09:58.685Z,101301.63
2019-05-15T21:12:09.796Z,101294.19
2019-05-15T21:14:18.253Z,101292.88
2019-05-15T21:16:24.872Z,101291.57
2019-05-15T21:18:31.554Z,101295.44
2019-05-15T21:20:39.789Z,101294.06
2019-05-15T21:22:49.047Z,101290.95
2019-05-15T21:24:56.803Z,101289.20
2019-05-15T21:27:03.513Z,101278.21
2019-05-15T21:29:10.203Z,101266.34
2019-05-15T21:31:21.294Z,101276.34
2019-05-15T21:33:26.662Z,101273.27
2019-05-15T21:35:34.194Z,101270.59
2019-05-15T21:37:40.873Z,101271.84
2019-05-15T21:39:48.570Z,101277.94
2019-05-15T21:41:55.241Z,101269.12
2019-05-15T21:44:03.415Z,101269.51
2019-05-15T21:46:13.353Z,101259.00
2019-05-15T21:48:20.045Z,101265.06
2019-05-15T21:50:28.315Z,101258.48
2019-05-15T21:52:38.372Z,101262.38
2019-05-15T21:54:44.482Z,101262.36
2019-05-15T21:56:51.466Z,101264.53
2019-05-15T21:59:01.015Z,101255.80
2019-05-15T22:01:10.903Z,101259.66
2019-05-15T22:03:20.414Z,101252.61
2019-05-15T22:05:29.133Z,101258.71
2019-05-15T22:07:36.116Z,101258.73
2019-05-15T22:09:42.710Z,101262.17
2019-05-15T22:11:49.938Z,101263.47
2019-05-15T22:13:58.550Z,101254.28
2019-05-15T22:16:08.019Z,101251.64
2019-05-15T22:18:15.219Z,101254.21
2019-05-15T22:20:22.149Z,101244.53
2019-05-15T22:22:28.879Z,101245.84
2019-05-15T22:24:37.766Z,101242.76
2019-05-15T22:26:44.442Z,101234.47
2019-05-15T22:28:52.820Z,101234.84
2019-05-15T22:31:02.706Z,101237.37
2019-05-15T22:33:10.709Z,101228.59
2019-05-15T22:35:18.718Z,101226.11
2019-05-15T22:37:25.819Z,101219.98
2019-05-15T22:39:32.482Z,101216.92
2019-05-15T22:41:40.306Z,101208.62
2019-05-15T22:43:48.549Z,101212.11
2019-05-15T22:45:58.873Z,101205.15
2019-05-15T22:48:07.159Z,101203.84
2019-05-15T22:50:18.336Z,101201.95
2019-05-15T22:52:27.837Z,101200.31
2019-05-15T22:54:34.229Z,101207.23
2019-05-15T22:56:40.892Z,101201.47
2019-05-15T22:58:48.025Z,101184.02
2019-05-15T23:00:59.767Z,101196.73
2019-05-15T23:03:08.234Z,101189.37
2019-05-15T23:05:25.254Z,101199.86
2019-05-15T23:07:23.902Z,101192.05
2019-05-15T23:09:30.550Z,101193.72
2019-05-15T23:11:39.295Z,101190.66
2019-05-15T23:13:48.431Z,101192.36
2019-05-15T23:15:58.421Z,101185.36
2019-05-15T23:18:08.605Z,101189.29
2019-05-15T23:20:17.657Z,101183.58
2019-05-15T23:24:38.868Z,101181.34
2019-05-15T23:26:47.656Z,101181.34
2019-05-15T23:28:53.639Z,101186.13
2019-05-15T23:31:00.425Z,101185.20
2019-05-15T23:33:08.572Z,101178.64
2019-05-15T23:35:17.559Z,101170.77
2019-05-15T23:37:25.149Z,101172.93
2019-05-15T23:39:31.798Z,101170.69
2019-05-15T23:41:38.582Z,101174.17
2019-05-15T23:43:48.074Z,101166.68
2019-05-15T23:45:54.510Z,101164.02
2019-05-15T23:48:01.159Z,101166.14
2019-05-15T23:50:08.249Z,101163.02
2019-05-15T23:52:17.819Z,101159.44
2019-05-15T23:54:28.472Z,101166.85
2019-05-15T23:56:38.826Z,101169.82
2019-05-15T23:58:45.585Z,101160.11
